createdAt,value
2018-01-30T00:00:57.340Z,20.09
2018-01-30T00:03:25.850Z,20.16
2018-01-30T00:05:53.274Z,19.75
2018-01-30T00:08:20.918Z,20.18
2018-01-30T00:10:48.367Z,20.12
2018-01-30T00:13:15.790Z,20.13
2018-01-30T00:15:43.195Z,20.15
2018-01-30T00:18:10.590Z,20.16
2018-01-30T00:20:37.946Z,20.12
2018-01-30T00:23:05.348Z,20.00
2018-01-30T00:25:32.702Z,20.09
2018-01-30T00:28:00.065Z,20.08
2018-01-30T00:30:27.409Z,20.06
2018-01-30T00:32:54.846Z,20.11
2018-01-30T00:35:22.207Z,19.98
2018-01-30T00:37:49.645Z,19.98
2018-01-30T00:40:17.026Z,20.03
2018-01-30T00:42:44.442Z,20.05
2018-01-30T00:45:11.796Z,19.99
2018-01-30T00:47:39.206Z,19.96
2018-01-30T00:50:06.612Z,19.83
2018-01-30T00:52:34.054Z,19.99
2018-01-30T00:55:01.424Z,19.91
2018-01-30T00:57:28.823Z,19.98
2018-01-30T00:59:56.387Z,19.61
2018-01-30T01:02:23.742Z,19.80
2018-01-30T01:04:51.319Z,19.94
2018-01-30T01:07:18.666Z,19.98
2018-01-30T01:09:46.042Z,19.90
2018-01-30T01:12:13.469Z,19.92
2018-01-30T01:14:40.820Z,19.87
2018-01-30T01:17:08.173Z,19.87
2018-01-30T01:19:35.594Z,19.91
2018-01-30T01:22:03.010Z,19.80
2018-01-30T01:24:30.352Z,19.74
2018-01-30T01:26:57.772Z,19.92
2018-01-30T01:29:25.135Z,19.90
2018-01-30T01:31:52.512Z,19.84
2018-01-30T01:34:19.915Z,19.90
2018-01-30T01:36:47.319Z,19.86
2018-01-30T01:39:14.679Z,19.84
2018-01-30T01:41:42.042Z,19.81
2018-01-30T01:44:09.440Z,19.80
2018-01-30T01:46:36.794Z,19.83
2018-01-30T01:49:04.196Z,19.74
2018-01-30T01:51:31.608Z,19.61
2018-01-30T01:53:59.036Z,19.79
2018-01-30T01:56:26.430Z,19.61
2018-01-30T01:58:53.776Z,19.76
2018-01-30T02:01:21.230Z,19.80
2018-01-30T02:03:48.681Z,19.88
2018-01-30T02:06:16.168Z,19.61
2018-01-30T02:08:43.539Z,19.68
2018-01-30T02:11:10.946Z,19.72
2018-01-30T02:13:38.313Z,19.68
2018-01-30T02:16:05.680Z,19.57
2018-01-30T02:18:33.106Z,19.71
2018-01-30T02:21:00.542Z,19.75
2018-01-30T02:23:28.040Z,19.77
2018-01-30T02:25:55.394Z,19.78
2018-01-30T02:28:22.878Z,19.76
2018-01-30T02:30:50.231Z,19.88
2018-01-30T02:33:17.583Z,19.96
2018-01-30T02:35:44.978Z,19.76
2018-01-30T02:38:12.326Z,19.90
2018-01-30T02:40:39.782Z,19.81
2018-01-30T02:43:07.189Z,19.87
2018-01-30T02:45:34.651Z,19.73
2018-01-30T02:48:02.094Z,19.94
2018-01-30T02:50:29.601Z,19.87
2018-01-30T02:52:57.039Z,19.86
2018-01-30T02:55:24.714Z,19.83
2018-01-30T02:57:52.069Z,19.95
2018-01-30T03:00:19.482Z,20.04
2018-01-30T03:02:47.057Z,20.00
2018-01-30T03:05:14.612Z,19.80
2018-01-30T03:07:41.958Z,20.08
2018-01-30T03:10:09.346Z,20.07
2018-01-30T03:12:36.707Z,20.03
2018-01-30T03:15:04.122Z,19.97
2018-01-30T03:17:31.509Z,20.14
2018-01-30T03:19:59.036Z,19.96
2018-01-30T03:22:26.471Z,20.09
2018-01-30T03:24:53.863Z,20.14
2018-01-30T03:27:22.887Z,20.10
2018-01-30T03:29:50.283Z,20.21
2018-01-30T03:32:17.623Z,20.15
2018-01-30T03:34:45.041Z,20.21
2018-01-30T03:37:12.442Z,20.18
2018-01-30T03:39:39.867Z,20.03
2018-01-30T03:42:07.277Z,20.15
2018-01-30T03:44:34.935Z,20.08
2018-01-30T03:47:02.306Z,20.19
2018-01-30T03:49:29.684Z,20.15
2018-01-30T03:51:57.084Z,20.20
2018-01-30T03:54:24.504Z,20.17
2018-01-30T03:56:52.547Z,20.18
2018-01-30T03:59:20.086Z,20.23
2018-01-30T04:01:47.534Z,20.20
2018-01-30T04:04:15.042Z,20.23
2018-01-30T04:06:43.688Z,20.13
2018-01-30T04:09:11.040Z,20.26
2018-01-30T04:11:38.465Z,20.37
2018-01-30T04:14:05.876Z,20.26
2018-01-30T04:16:35.923Z,20.30
2018-01-30T04:19:03.301Z,20.10
2018-01-30T04:21:30.943Z,20.29
2018-01-30T04:23:58.435Z,20.12
2018-01-30T04:26:26.074Z,20.42
2018-01-30T04:28:53.562Z,20.37
2018-01-30T04:31:21.327Z,20.48
2018-01-30T04:33:48.803Z,20.29
2018-01-30T04:36:16.266Z,20.46
2018-01-30T04:38:44.000Z,20.45
2018-01-30T04:41:11.574Z,20.43
2018-01-30T04:43:38.966Z,20.49
2018-01-30T04:46:06.502Z,20.57
2018-01-30T04:48:33.989Z,20.42
2018-01-30T04:51:01.537Z,20.61
2018-01-30T04:53:30.546Z,20.62
2018-01-30T04:55:58.064Z,20.65
2018-01-30T04:58:25.967Z,20.60
2018-01-30T05:00:53.414Z,20.71
2018-01-30T05:03:20.933Z,20.72
2018-01-30T05:05:48.571Z,20.66
2018-01-30T05:08:16.045Z,20.73
2018-01-30T05:10:45.333Z,20.77
2018-01-30T05:13:12.858Z,20.80
2018-01-30T05:15:40.298Z,20.78
2018-01-30T05:18:08.023Z,20.90
2018-01-30T05:20:35.598Z,20.87
2018-01-30T05:23:03.798Z,20.83
2018-01-30T05:25:31.359Z,20.81
2018-01-30T05:27:59.567Z,20.93
2018-01-30T05:30:27.933Z,20.94
2018-01-30T05:32:55.508Z,20.99
2018-01-30T05:35:22.935Z,20.83
2018-01-30T05:37:50.313Z,20.88
2018-01-30T05:40:17.921Z,21.01
2018-01-30T05:42:46.251Z,21.02
2018-01-30T05:45:13.938Z,21.05
2018-01-30T05:47:42.184Z,21.00
2018-01-30T05:50:09.611Z,21.02
2018-01-30T05:52:37.043Z,20.99
2018-01-30T05:55:04.533Z,21.02
2018-01-30T05:57:32.433Z,21.05
2018-01-30T06:00:01.085Z,21.01
2018-01-30T06:02:34.992Z,21.25
2018-01-30T06:05:02.610Z,21.27
2018-01-30T06:07:30.175Z,21.27
2018-01-30T06:09:57.990Z,21.41
2018-01-30T06:12:25.579Z,21.39
2018-01-30T06:14:53.014Z,21.45
2018-01-30T06:17:21.879Z,21.46
2018-01-30T06:19:49.565Z,21.47
2018-01-30T06:22:16.959Z,21.62
2018-01-30T06:24:44.909Z,21.60
2018-01-30T06:27:13.457Z,21.69
2018-01-30T06:29:40.900Z,21.76
2018-01-30T06:32:08.279Z,21.73
2018-01-30T06:34:35.702Z,21.94
2018-01-30T06:37:03.068Z,22.03
2018-01-30T06:39:30.630Z,21.92
2018-01-30T06:41:58.110Z,22.15
2018-01-30T06:44:25.597Z,22.18
2018-01-30T06:46:53.092Z,22.15
2018-01-30T06:49:20.513Z,22.20
2018-01-30T06:51:48.033Z,22.34
2018-01-30T06:54:15.420Z,22.42
2018-01-30T06:56:42.895Z,22.33
2018-01-30T06:59:10.333Z,22.14
2018-01-30T07:01:37.797Z,22.50
2018-01-30T07:04:05.253Z,22.64
2018-01-30T07:06:32.670Z,22.72
2018-01-30T07:09:00.035Z,22.77
2018-01-30T07:11:27.472Z,22.74
2018-01-30T07:13:54.954Z,22.80
2018-01-30T07:16:22.339Z,22.85
2018-01-30T07:18:49.971Z,22.75
2018-01-30T07:21:17.398Z,22.85
2018-01-30T07:23:44.958Z,22.96
2018-01-30T07:26:12.428Z,22.91
2018-01-30T07:28:39.930Z,22.87
2018-01-30T07:31:07.633Z,22.95
2018-01-30T07:33:35.182Z,23.03
2018-01-30T07:36:02.560Z,23.10
2018-01-30T07:38:29.926Z,23.21
2018-01-30T07:40:57.359Z,23.16
2018-01-30T07:43:25.158Z,23.20
2018-01-30T07:45:52.602Z,23.17
2018-01-30T07:48:20.088Z,23.25
2018-01-30T07:50:47.598Z,23.26
2018-01-30T07:53:15.229Z,23.30
2018-01-30T07:55:42.684Z,23.18
2018-01-30T07:58:10.868Z,23.40
2018-01-30T08:00:39.420Z,23.35
2018-01-30T08:03:07.027Z,23.47
2018-01-30T08:05:34.706Z,23.39
2018-01-30T08:08:02.177Z,23.58
2018-01-30T08:10:29.571Z,23.53
2018-01-30T08:12:57.259Z,23.51
2018-01-30T08:15:24.829Z,23.55
2018-01-30T08:17:52.886Z,23.72
2018-01-30T08:20:20.955Z,23.61
2018-01-30T08:22:48.427Z,23.67
2018-01-30T08:25:15.862Z,23.54
2018-01-30T08:27:44.070Z,23.59
2018-01-30T08:30:11.504Z,23.74
2018-01-30T08:32:38.886Z,23.74
2018-01-30T08:35:06.426Z,23.69
2018-01-30T08:40:07.228Z,23.80
2018-01-30T08:42:34.631Z,23.90
2018-01-30T08:45:02.121Z,23.99
2018-01-30T08:47:29.586Z,23.90
2018-01-30T08:49:57.174Z,24.00
2018-01-30T08:52:25.286Z,24.05
2018-01-30T08:54:53.607Z,24.00
2018-01-30T08:57:21.342Z,24.18
2018-01-30T08:59:48.941Z,24.05
2018-01-30T09:02:16.396Z,24.09
2018-01-30T09:04:44.026Z,24.07
2018-01-30T09:07:15.977Z,24.04
2018-01-30T09:09:43.756Z,24.06
2018-01-30T09:12:11.285Z,24.10
2018-01-30T09:14:38.814Z,23.97
2018-01-30T09:17:06.305Z,24.18
2018-01-30T09:19:33.725Z,24.06
2018-01-30T09:22:01.135Z,24.11
2018-01-30T09:24:28.565Z,24.40
2018-01-30T09:27:03.506Z,24.23
2018-01-30T09:29:31.460Z,24.23
2018-01-30T09:31:59.208Z,24.06
2018-01-30T09:34:26.645Z,23.95
2018-01-30T09:36:54.396Z,24.05
2018-01-30T09:39:21.862Z,23.80
2018-01-30T09:41:49.805Z,24.01
2018-01-30T09:44:17.348Z,23.99
2018-01-30T09:46:45.811Z,24.02
2018-01-30T09:49:13.328Z,24.27
2018-01-30T09:51:41.421Z,24.08
2018-01-30T09:54:09.015Z,24.23
2018-01-30T09:56:36.729Z,23.98
2018-01-30T09:59:04.297Z,24.31
2018-01-30T10:01:32.041Z,24.36
2018-01-30T10:03:59.566Z,24.01
2018-01-30T10:06:26.937Z,24.33
2018-01-30T10:08:54.460Z,24.27
2018-01-30T10:11:21.899Z,24.18
2018-01-30T10:13:49.321Z,24.29
2018-01-30T10:16:16.757Z,24.12
2018-01-30T10:18:44.213Z,24.25
2018-01-30T10:21:11.631Z,24.49
2018-01-30T10:23:39.264Z,24.23
2018-01-30T10:26:06.687Z,24.16
2018-01-30T10:28:34.206Z,24.43
2018-01-30T10:31:01.629Z,24.32
2018-01-30T10:33:29.083Z,24.35
2018-01-30T10:35:56.595Z,24.23
2018-01-30T10:38:24.254Z,24.39
2018-01-30T10:40:51.764Z,24.33
2018-01-30T10:43:19.194Z,24.35
2018-01-30T10:45:46.650Z,24.49
2018-01-30T10:48:14.184Z,24.43
2018-01-30T10:50:41.647Z,24.42
2018-01-30T10:53:09.301Z,24.36
2018-01-30T10:55:36.890Z,24.33
2018-01-30T10:58:04.354Z,24.08
2018-01-30T11:00:31.890Z,24.32
2018-01-30T11:02:59.454Z,24.36
2018-01-30T11:05:27.057Z,23.98
2018-01-30T11:07:54.607Z,24.28
2018-01-30T11:10:21.993Z,24.21
2018-01-30T11:12:49.446Z,24.34
2018-01-30T11:15:16.921Z,24.32
2018-01-30T11:17:44.379Z,24.12
2018-01-30T11:20:11.832Z,24.15
2018-01-30T11:22:39.483Z,24.27
2018-01-30T11:25:06.899Z,24.30
2018-01-30T11:27:34.438Z,24.07
2018-01-30T11:30:01.923Z,24.17
2018-01-30T11:32:29.435Z,24.19
2018-01-30T11:34:56.900Z,24.32
2018-01-30T11:37:24.596Z,24.18
2018-01-30T11:39:52.059Z,24.00
2018-01-30T11:42:19.603Z,23.89
2018-01-30T11:44:46.991Z,24.13
2018-01-30T11:47:14.459Z,24.10
2018-01-30T11:49:41.838Z,24.02
2018-01-30T11:52:09.374Z,24.17
2018-01-30T11:54:36.867Z,24.13
2018-01-30T11:57:04.309Z,24.05
2018-01-30T11:59:31.900Z,24.01
2018-01-30T12:01:59.398Z,24.11
2018-01-30T12:04:26.811Z,23.90
2018-01-30T12:06:54.258Z,24.06
2018-01-30T12:09:21.801Z,23.97
2018-01-30T12:11:49.294Z,24.31
2018-01-30T12:14:16.719Z,24.36
2018-01-30T12:16:44.469Z,24.29
2018-01-30T12:19:11.970Z,24.22
2018-01-30T12:21:39.815Z,23.97
2018-01-30T12:24:07.211Z,24.11
2018-01-30T12:26:35.035Z,24.12
2018-01-30T12:29:02.549Z,24.25
2018-01-30T12:31:30.187Z,24.34
2018-01-30T12:33:57.972Z,24.15
2018-01-30T12:36:25.538Z,24.37
2018-01-30T12:38:53.110Z,24.16
2018-01-30T12:41:20.557Z,24.29
2018-01-30T12:43:48.195Z,24.37
2018-01-30T12:46:15.637Z,24.43
2018-01-30T12:48:43.199Z,24.27
2018-01-30T12:51:10.619Z,24.36
2018-01-30T12:53:38.230Z,24.23
2018-01-30T12:56:05.738Z,24.32
2018-01-30T12:58:33.178Z,24.36
2018-01-30T13:01:00.776Z,24.08
2018-01-30T13:03:28.371Z,24.32
2018-01-30T13:05:55.809Z,24.39
2018-01-30T13:08:23.257Z,24.47
2018-01-30T13:10:50.701Z,24.51
2018-01-30T13:13:18.187Z,24.52
2018-01-30T13:15:45.700Z,24.47
2018-01-30T13:18:13.162Z,24.31
2018-01-30T13:20:40.601Z,24.68
2018-01-30T13:23:08.141Z,24.74
2018-01-30T13:25:35.698Z,24.44
2018-01-30T13:28:03.123Z,24.69
2018-01-30T13:30:30.563Z,24.33
2018-01-30T13:32:58.127Z,24.40
2018-01-30T13:35:25.623Z,24.61
2018-01-30T13:37:53.230Z,24.21
2018-01-30T13:40:20.803Z,24.28
2018-01-30T13:42:48.391Z,24.69
2018-01-30T13:45:15.879Z,24.52
2018-01-30T13:47:43.329Z,24.57
2018-01-30T13:50:10.905Z,24.70
2018-01-30T13:52:39.192Z,24.60
2018-01-30T13:55:06.814Z,24.66
2018-01-30T13:57:34.429Z,24.65
2018-01-30T14:00:01.856Z,24.19
2018-01-30T14:02:29.376Z,24.56
2018-01-30T14:04:56.858Z,24.42
2018-01-30T14:07:24.237Z,24.40
2018-01-30T14:09:51.708Z,24.21
2018-01-30T14:12:19.166Z,24.40
2018-01-30T14:14:46.831Z,24.59
2018-01-30T14:17:14.293Z,24.57
2018-01-30T14:19:41.704Z,24.47
2018-01-30T14:22:09.298Z,24.63
2018-01-30T14:24:36.744Z,24.42
2018-01-30T14:27:04.317Z,24.55
2018-01-30T14:29:31.792Z,24.54
2018-01-30T14:31:59.392Z,24.47
2018-01-30T14:34:26.873Z,24.39
2018-01-30T14:36:54.305Z,24.30
2018-01-30T14:39:21.802Z,24.34
2018-01-30T14:41:49.287Z,24.47
2018-01-30T14:44:16.720Z,24.42
2018-01-30T14:46:44.125Z,24.50
2018-01-30T14:49:11.604Z,24.40
2018-01-30T14:51:39.054Z,24.30
2018-01-30T14:54:06.467Z,24.35
2018-01-30T14:56:33.951Z,24.18
2018-01-30T14:59:01.359Z,24.23
2018-01-30T15:01:29.020Z,24.13
2018-01-30T15:03:56.912Z,24.13
2018-01-30T15:06:24.310Z,24.31
2018-01-30T15:08:51.745Z,24.21
2018-01-30T15:11:19.294Z,24.02
2018-01-30T15:13:46.736Z,24.16
2018-01-30T15:16:14.215Z,24.19
2018-01-30T15:18:41.651Z,24.22
2018-01-30T15:21:09.091Z,24.17
2018-01-30T15:23:36.715Z,24.23
2018-01-30T15:26:04.194Z,24.16
2018-01-30T15:28:31.672Z,24.15
2018-01-30T15:30:59.070Z,24.17
2018-01-30T15:33:26.501Z,23.95
2018-01-30T15:35:53.940Z,24.05
2018-01-30T15:38:21.419Z,23.98
2018-01-30T15:40:48.874Z,23.85
2018-01-30T15:43:16.286Z,23.73
2018-01-30T15:45:43.688Z,23.93
2018-01-30T15:48:11.124Z,23.73
2018-01-30T15:50:38.502Z,23.92
2018-01-30T15:53:05.956Z,23.79
2018-01-30T15:55:33.344Z,23.79
2018-01-30T15:58:00.950Z,23.46
2018-01-30T16:00:28.423Z,23.83
2018-01-30T16:02:55.798Z,23.77
2018-01-30T16:05:23.168Z,23.69
2018-01-30T16:07:50.630Z,23.73
2018-01-30T16:10:18.008Z,23.70
2018-01-30T16:12:45.385Z,23.69
2018-01-30T16:15:14.032Z,23.65
2018-01-30T16:17:41.481Z,23.70
2018-01-30T16:20:08.894Z,23.62
2018-01-30T16:22:37.321Z,23.56
2018-01-30T16:25:04.938Z,23.48
2018-01-30T16:27:32.398Z,23.40
2018-01-30T16:29:59.967Z,23.43
2018-01-30T16:32:27.403Z,23.51
2018-01-30T16:34:54.757Z,23.50
2018-01-30T16:37:22.165Z,23.45
2018-01-30T16:39:49.909Z,23.16
2018-01-30T16:42:17.333Z,23.41
2018-01-30T16:44:45.316Z,23.38
2018-01-30T16:47:12.661Z,23.28
2018-01-30T16:49:40.061Z,23.34
2018-01-30T16:52:07.434Z,23.28
2018-01-30T16:54:35.027Z,23.20
2018-01-30T16:57:02.418Z,23.28
2018-01-30T16:59:29.832Z,23.28
2018-01-30T17:01:57.237Z,22.92
2018-01-30T17:04:24.618Z,23.17
2018-01-30T17:06:53.462Z,23.09
2018-01-30T17:09:21.021Z,22.96
2018-01-30T17:11:48.507Z,23.15
2018-01-30T17:14:15.940Z,23.09
2018-01-30T17:16:43.489Z,23.09
2018-01-30T17:19:10.890Z,23.09
2018-01-30T17:21:38.278Z,23.06
2018-01-30T17:24:07.274Z,23.02
2018-01-30T17:26:34.922Z,22.98
2018-01-30T17:29:02.983Z,22.98
2018-01-30T17:31:30.383Z,22.97
2018-01-30T17:33:57.820Z,23.02
2018-01-30T17:36:25.272Z,22.98
2018-01-30T17:38:52.646Z,23.01
2018-01-30T17:41:20.130Z,22.94
2018-01-30T17:43:47.464Z,22.84
2018-01-30T17:46:14.899Z,22.94
2018-01-30T17:48:42.429Z,22.92
2018-01-30T17:51:09.815Z,22.93
2018-01-30T17:53:37.194Z,22.86
2018-01-30T17:56:04.610Z,22.88
2018-01-30T17:58:31.988Z,22.88
2018-01-30T18:00:59.414Z,22.81
2018-01-30T18:03:26.788Z,22.89
2018-01-30T18:05:54.157Z,22.84
2018-01-30T18:08:21.556Z,22.83
2018-01-30T18:10:48.979Z,22.82
2018-01-30T18:13:16.431Z,22.99
2018-01-30T18:15:43.807Z,22.99
2018-01-30T18:18:11.230Z,22.96
2018-01-30T18:20:38.625Z,22.87
2018-01-30T18:23:05.973Z,22.97
2018-01-30T18:25:33.417Z,22.93
2018-01-30T18:28:00.796Z,22.93
2018-01-30T18:30:28.214Z,22.78
2018-01-30T18:32:55.597Z,22.84
2018-01-30T18:35:22.965Z,22.96
2018-01-30T18:37:50.370Z,22.96
2018-01-30T18:40:17.746Z,22.92
2018-01-30T18:42:45.172Z,22.79
2018-01-30T18:45:12.556Z,22.85
2018-01-30T18:47:39.984Z,22.90
2018-01-30T18:50:07.445Z,22.92
2018-01-30T18:52:34.870Z,22.78
2018-01-30T18:55:02.266Z,22.84
2018-01-30T18:57:29.679Z,22.82
2018-01-30T18:59:57.134Z,22.67
2018-01-30T19:02:24.527Z,22.77
2018-01-30T19:04:51.944Z,22.65
2018-01-30T19:07:19.314Z,22.75
2018-01-30T19:09:46.726Z,22.77
2018-01-30T19:12:14.108Z,22.77
2018-01-30T19:14:41.595Z,22.72
2018-01-30T19:17:08.945Z,22.75
2018-01-30T19:19:36.346Z,22.73
2018-01-30T19:22:03.706Z,22.68
2018-01-30T19:24:31.116Z,22.72
2018-01-30T19:26:58.541Z,22.69
2018-01-30T19:29:25.980Z,22.66
2018-01-30T19:31:53.371Z,22.68
2018-01-30T19:34:20.785Z,22.64
2018-01-30T19:36:48.182Z,22.69
2018-01-30T19:39:15.560Z,22.44
2018-01-30T19:41:43.059Z,22.53
2018-01-30T19:44:10.438Z,22.61
2018-01-30T19:46:37.828Z,22.56
2018-01-30T19:49:05.221Z,22.62
2018-01-30T19:51:32.622Z,22.61
2018-01-30T19:54:00.007Z,22.57
2018-01-30T19:56:27.400Z,22.55
2018-01-30T19:58:54.870Z,22.31
2018-01-30T20:01:22.231Z,22.55
2018-01-30T20:03:49.630Z,22.33
2018-01-30T20:06:17.004Z,22.44
2018-01-30T20:08:44.445Z,22.51
2018-01-30T20:11:11.789Z,22.47
2018-01-30T20:13:39.155Z,22.48
2018-01-30T20:16:06.557Z,22.49
2018-01-30T20:18:33.962Z,22.48
2018-01-30T20:21:01.361Z,22.28
2018-01-30T20:23:28.724Z,22.36
2018-01-30T20:25:56.130Z,22.45
2018-01-30T20:28:23.534Z,22.47
2018-01-30T20:30:51.035Z,22.46
2018-01-30T20:33:18.438Z,22.43
2018-01-30T20:35:45.814Z,22.37
2018-01-30T20:38:13.180Z,22.23
2018-01-30T20:40:40.599Z,22.32
2018-01-30T20:43:07.954Z,22.24
2018-01-30T20:45:35.348Z,22.33
2018-01-30T20:48:02.754Z,22.27
2018-01-30T20:50:30.124Z,22.37
2018-01-30T20:52:57.486Z,22.30
2018-01-30T20:55:24.859Z,22.31
2018-01-30T20:57:52.235Z,22.33
2018-01-30T21:00:19.617Z,22.32
2018-01-30T21:02:46.991Z,22.29
2018-01-30T21:05:14.404Z,22.20
2018-01-30T21:07:41.811Z,22.28
2018-01-30T21:10:09.173Z,22.30
2018-01-30T21:12:36.519Z,22.19
2018-01-30T21:15:03.966Z,22.21
2018-01-30T21:17:31.398Z,22.18
2018-01-30T21:19:58.761Z,22.11
2018-01-30T21:22:26.119Z,22.05
2018-01-30T21:24:53.510Z,22.04
2018-01-30T21:27:20.888Z,21.94
2018-01-30T21:29:48.262Z,21.94
2018-01-30T21:32:15.674Z,21.87
2018-01-30T21:34:43.050Z,21.85
2018-01-30T21:37:10.487Z,21.87
2018-01-30T21:39:37.882Z,21.79
2018-01-30T21:42:10.701Z,21.85
2018-01-30T21:44:38.079Z,21.72
2018-01-30T21:47:05.467Z,21.70
2018-01-30T21:49:32.862Z,21.59
2018-01-30T21:52:00.223Z,21.53
2018-01-30T21:54:27.604Z,21.51
2018-01-30T21:56:54.995Z,21.61
2018-01-30T21:59:22.400Z,21.50
2018-01-30T22:01:49.868Z,21.57
2018-01-30T22:04:17.210Z,21.51
2018-01-30T22:06:44.567Z,21.52
2018-01-30T22:09:11.965Z,21.53
2018-01-30T22:11:39.304Z,21.42
2018-01-30T22:14:06.666Z,21.37
2018-01-30T22:16:34.070Z,21.38
2018-01-30T22:19:01.449Z,21.37
2018-01-30T22:21:28.833Z,21.34
2018-01-30T22:23:56.217Z,21.40
2018-01-30T22:26:23.596Z,20.95
2018-01-30T22:28:50.979Z,21.37
2018-01-30T22:31:18.351Z,21.33
2018-01-30T22:33:45.727Z,21.33
2018-01-30T22:36:13.065Z,21.35
2018-01-30T22:38:40.435Z,21.28
2018-01-30T22:41:07.862Z,21.28
2018-01-30T22:43:35.226Z,21.17
2018-01-30T22:46:02.621Z,21.29
